<?xml version="1.0" encoding="UTF-8" standalone="no" ?>
<gpx xmlns="http://www.topografix.com/GPX/1/1" xmlns:xsi="http://www.w3.org/2001/XMLSchema-instance" xsi:schemaLocation="http://www.topografix.com/GPX/1/1 http://www.topografix.com/GPX/1/1/gpx.xsd" version="1.1" creator="VisuGPX - https://www.visugpx.com">
  <metadata>
    <name>Marche au départ d'Arbre</name>
    <desc><![CDATA[Marche au départ d'Arbre, petit échauffement pour l'Audax]]></desc>
  </metadata>
  <trk>
    <name><![CDATA[2017-01-05 07:57]]></name>
    <desc><![CDATA[<p>Heure de départ: 01/05/2017 07:57</p><p>Heure d'arrivée: 01/05/2017 09:00</p><p>Distance: 6,1 km (01:02)</p><p>Temps déplacement: 00:58</p><p>Vitesse moyenne: 5,86 km/h</p><p>Vitesse moyenne mouv.: 6,25 km/h</p><p>Vitesse Max.: 10,6km/h</p><p>Altitude minimale: -5 m</p><p>Altitude maximale: 52 m</p><p>Vitesse de montée: 273,3 m/h</p><p>Vitesse de descente: -195,7 m/h</p><p>Gain d'altitude: 99 m</p><p>Perte d'altitude: -89 m</p><p>Temps de montée: 00:21</p><p>Temps de descente: 00:27</p><hr align="center" width="480" style="height: 2px; width: 517px"/>]]></desc>
    <trkseg>
      <trkpt lat="47.26059" lon="-1.56992">
        <ele>14.75</ele>
        <time>2017-01-05T06:57:37Z</time>
      </trkpt>
      <trkpt lat="47.2604" lon="-1.56986">
        <ele>48.47</ele>
        <time>2017-01-05T06:57:57Z</time>
      </trkpt>
      <trkpt lat="47.26024" lon="-1.5697">
        <ele>51.18</ele>
        <time>2017-01-05T06:58:10Z</time>
      </trkpt>
      <trkpt lat="47.2601" lon="-1.56953">
        <ele>51.18</ele>
        <time>2017-01-05T06:58:23Z</time>
      </trkpt>
      <trkpt lat="47.25993" lon="-1.56937">
        <ele>50.96</ele>
        <time>2017-01-05T06:58:33Z</time>
      </trkpt>
      <trkpt lat="47.25977" lon="-1.56921">
        <ele>49.71</ele>
        <time>2017-01-05T06:58:45Z</time>
      </trkpt>
      <trkpt lat="47.25964" lon="-1.56902">
        <ele>48.58</ele>
        <time>2017-01-05T06:58:57Z</time>
      </trkpt>
      <trkpt lat="47.25962" lon="-1.56875">
        <ele>48.65</ele>
        <time>2017-01-05T06:59:08Z</time>
      </trkpt>
      <trkpt lat="47.25968" lon="-1.56847">
        <ele>50</ele>
        <time>2017-01-05T06:59:21Z</time>
      </trkpt>
      <trkpt lat="47.25963" lon="-1.5682">
        <ele>51.29</ele>
        <time>2017-01-05T06:59:33Z</time>
      </trkpt>
      <trkpt lat="47.25954" lon="-1.56796">
        <ele>52.1</ele>
        <time>2017-01-05T06:59:44Z</time>
      </trkpt>
      <trkpt lat="47.25942" lon="-1.56773">
        <ele>52.52</ele>
        <time>2017-01-05T06:59:55Z</time>
      </trkpt>
      <trkpt lat="47.25931" lon="-1.5675">
        <ele>52.6</ele>
        <time>2017-01-05T07:00:08Z</time>
      </trkpt>
      <trkpt lat="47.25927" lon="-1.56722">
        <ele>52.48</ele>
        <time>2017-01-05T07:00:20Z</time>
      </trkpt>
      <trkpt lat="47.25929" lon="-1.56693">
        <ele>52.38</ele>
        <time>2017-01-05T07:00:32Z</time>
      </trkpt>
      <trkpt lat="47.25944" lon="-1.56677">
        <ele>52.08</ele>
        <time>2017-01-05T07:00:46Z</time>
      </trkpt>
      <trkpt lat="47.25961" lon="-1.56689">
        <ele>51.41</ele>
        <time>2017-01-05T07:00:56Z</time>
      </trkpt>
      <trkpt lat="47.25979" lon="-1.56693">
        <ele>49.83</ele>
        <time>2017-01-05T07:01:09Z</time>
      </trkpt>
      <trkpt lat="47.25998" lon="-1.56696">
        <ele>48.73</ele>
        <time>2017-01-05T07:01:19Z</time>
      </trkpt>
      <trkpt lat="47.26016" lon="-1.567">
        <ele>47.45</ele>
        <time>2017-01-05T07:01:32Z</time>
      </trkpt>
      <trkpt lat="47.26035" lon="-1.56699">
        <ele>46.64</ele>
        <time>2017-01-05T07:01:41Z</time>
      </trkpt>
      <trkpt lat="47.26053" lon="-1.56699">
        <ele>45.71</ele>
        <time>2017-01-05T07:01:56Z</time>
      </trkpt>
      <trkpt lat="47.26072" lon="-1.56699">
        <ele>45.21</ele>
        <time>2017-01-05T07:02:08Z</time>
      </trkpt>
      <trkpt lat="47.2609" lon="-1.56703">
        <ele>44.63</ele>
        <time>2017-01-05T07:02:20Z</time>
      </trkpt>
      <trkpt lat="47.26109" lon="-1.56703">
        <ele>44.13</ele>
        <time>2017-01-05T07:02:29Z</time>
      </trkpt>
      <trkpt lat="47.26128" lon="-1.56705">
        <ele>43.66</ele>
        <time>2017-01-05T07:02:42Z</time>
      </trkpt>
      <trkpt lat="47.26146" lon="-1.56706">
        <ele>43.65</ele>
        <time>2017-01-05T07:02:55Z</time>
      </trkpt>
      <trkpt lat="47.26165" lon="-1.56705">
        <ele>43.9</ele>
        <time>2017-01-05T07:03:12Z</time>
      </trkpt>
      <trkpt lat="47.26187" lon="-1.56712">
        <ele>43.78</ele>
        <time>2017-01-05T07:03:26Z</time>
      </trkpt>
      <trkpt lat="47.26206" lon="-1.56702">
        <ele>43.51</ele>
        <time>2017-01-05T07:03:34Z</time>
      </trkpt>
      <trkpt lat="47.26217" lon="-1.56681">
        <ele>43.1</ele>
        <time>2017-01-05T07:03:43Z</time>
      </trkpt>
      <trkpt lat="47.26231" lon="-1.56662">
        <ele>41.19</ele>
        <time>2017-01-05T07:04:42Z</time>
      </trkpt>
      <trkpt lat="47.26231" lon="-1.56634">
        <ele>38.38</ele>
        <time>2017-01-05T07:05:01Z</time>
      </trkpt>
      <trkpt lat="47.26219" lon="-1.56614">
        <ele>37.43</ele>
        <time>2017-01-05T07:05:11Z</time>
      </trkpt>
      <trkpt lat="47.26208" lon="-1.56591">
        <ele>36.65</ele>
        <time>2017-01-05T07:05:23Z</time>
      </trkpt>
      <trkpt lat="47.26197" lon="-1.56568">
        <ele>36.18</ele>
        <time>2017-01-05T07:05:35Z</time>
      </trkpt>
      <trkpt lat="47.26188" lon="-1.56543">
        <ele>35.91</ele>
        <time>2017-01-05T07:05:48Z</time>
      </trkpt>
      <trkpt lat="47.26179" lon="-1.56518">
        <ele>35.75</ele>
        <time>2017-01-05T07:06:01Z</time>
      </trkpt>
      <trkpt lat="47.26168" lon="-1.56494">
        <ele>35.62</ele>
        <time>2017-01-05T07:06:12Z</time>
      </trkpt>
      <trkpt lat="47.26155" lon="-1.56473">
        <ele>35.38</ele>
        <time>2017-01-05T07:06:24Z</time>
      </trkpt>
      <trkpt lat="47.26146" lon="-1.5645">
        <ele>35.11</ele>
        <time>2017-01-05T07:06:35Z</time>
      </trkpt>
      <trkpt lat="47.26138" lon="-1.56425">
        <ele>34.78</ele>
        <time>2017-01-05T07:06:49Z</time>
      </trkpt>
      <trkpt lat="47.26128" lon="-1.564">
        <ele>34.49</ele>
        <time>2017-01-05T07:07:00Z</time>
      </trkpt>
      <trkpt lat="47.26117" lon="-1.56377">
        <ele>34.36</ele>
        <time>2017-01-05T07:07:12Z</time>
      </trkpt>
      <trkpt lat="47.26108" lon="-1.56352">
        <ele>34.5</ele>
        <time>2017-01-05T07:07:27Z</time>
      </trkpt>
      <trkpt lat="47.26103" lon="-1.56326">
        <ele>35</ele>
        <time>2017-01-05T07:07:38Z</time>
      </trkpt>
      <trkpt lat="47.26094" lon="-1.56301">
        <ele>35.95</ele>
        <time>2017-01-05T07:07:50Z</time>
      </trkpt>
      <trkpt lat="47.2609" lon="-1.56275">
        <ele>36.88</ele>
        <time>2017-01-05T07:08:01Z</time>
      </trkpt>
      <trkpt lat="47.26087" lon="-1.56248">
        <ele>37.86</ele>
        <time>2017-01-05T07:08:13Z</time>
      </trkpt>
      <trkpt lat="47.26081" lon="-1.56222">
        <ele>38.63</ele>
        <time>2017-01-05T07:08:24Z</time>
      </trkpt>
      <trkpt lat="47.26077" lon="-1.56194">
        <ele>39.55</ele>
        <time>2017-01-05T07:08:36Z</time>
      </trkpt>
      <trkpt lat="47.26072" lon="-1.56167">
        <ele>40.52</ele>
        <time>2017-01-05T07:08:48Z</time>
      </trkpt>
      <trkpt lat="47.26067" lon="-1.56139">
        <ele>41.66</ele>
        <time>2017-01-05T07:09:01Z</time>
      </trkpt>
      <trkpt lat="47.26061" lon="-1.56112">
        <ele>42.54</ele>
        <time>2017-01-05T07:09:12Z</time>
      </trkpt>
      <trkpt lat="47.26052" lon="-1.56088">
        <ele>43.9</ele>
        <time>2017-01-05T07:09:25Z</time>
      </trkpt>
      <trkpt lat="47.26044" lon="-1.56063">
        <ele>44.84</ele>
        <time>2017-01-05T07:09:36Z</time>
      </trkpt>
      <trkpt lat="47.26038" lon="-1.56037">
        <ele>45.67</ele>
        <time>2017-01-05T07:09:49Z</time>
      </trkpt>
      <trkpt lat="47.26025" lon="-1.56017">
        <ele>46.36</ele>
        <time>2017-01-05T07:10:04Z</time>
      </trkpt>
      <trkpt lat="47.2602" lon="-1.5599">
        <ele>46.63</ele>
        <time>2017-01-05T07:10:14Z</time>
      </trkpt>
      <trkpt lat="47.26013" lon="-1.55964">
        <ele>46.63</ele>
        <time>2017-01-05T07:10:27Z</time>
      </trkpt>
      <trkpt lat="47.26004" lon="-1.55936">
        <ele>46.44</ele>
        <time>2017-01-05T07:10:37Z</time>
      </trkpt>
      <trkpt lat="47.26" lon="-1.55909">
        <ele>45.71</ele>
        <time>2017-01-05T07:10:50Z</time>
      </trkpt>
      <trkpt lat="47.25995" lon="-1.55882">
        <ele>44.37</ele>
        <time>2017-01-05T07:11:03Z</time>
      </trkpt>
      <trkpt lat="47.25992" lon="-1.55855">
        <ele>43.22</ele>
        <time>2017-01-05T07:11:15Z</time>
      </trkpt>
      <trkpt lat="47.25989" lon="-1.55829">
        <ele>41.79</ele>
        <time>2017-01-05T07:11:26Z</time>
      </trkpt>
      <trkpt lat="47.25989" lon="-1.55801">
        <ele>40.31</ele>
        <time>2017-01-05T07:11:38Z</time>
      </trkpt>
      <trkpt lat="47.25994" lon="-1.55773">
        <ele>38.91</ele>
        <time>2017-01-05T07:11:50Z</time>
      </trkpt>
      <trkpt lat="47.26006" lon="-1.55753">
        <ele>37.69</ele>
        <time>2017-01-05T07:12:03Z</time>
      </trkpt>
      <trkpt lat="47.26022" lon="-1.55741">
        <ele>36.78</ele>
        <time>2017-01-05T07:12:14Z</time>
      </trkpt>
      <trkpt lat="47.26037" lon="-1.55725">
        <ele>36.06</ele>
        <time>2017-01-05T07:12:28Z</time>
      </trkpt>
      <trkpt lat="47.26047" lon="-1.55702">
        <ele>35.41</ele>
        <time>2017-01-05T07:12:41Z</time>
      </trkpt>
      <trkpt lat="47.26045" lon="-1.55675">
        <ele>34.86</ele>
        <time>2017-01-05T07:12:52Z</time>
      </trkpt>
      <trkpt lat="47.26041" lon="-1.55647">
        <ele>34.28</ele>
        <time>2017-01-05T07:13:05Z</time>
      </trkpt>
      <trkpt lat="47.26027" lon="-1.55627">
        <ele>33.62</ele>
        <time>2017-01-05T07:13:17Z</time>
      </trkpt>
      <trkpt lat="47.26011" lon="-1.55614">
        <ele>32.74</ele>
        <time>2017-01-05T07:13:28Z</time>
      </trkpt>
      <trkpt lat="47.26003" lon="-1.5559">
        <ele>32.02</ele>
        <time>2017-01-05T07:13:38Z</time>
      </trkpt>
      <trkpt lat="47.26004" lon="-1.55563">
        <ele>31.4</ele>
        <time>2017-01-05T07:13:47Z</time>
      </trkpt>
      <trkpt lat="47.26009" lon="-1.55536">
        <ele>30.57</ele>
        <time>2017-01-05T07:13:59Z</time>
      </trkpt>
      <trkpt lat="47.26019" lon="-1.55512">
        <ele>29.99</ele>
        <time>2017-01-05T07:14:11Z</time>
      </trkpt>
      <trkpt lat="47.26029" lon="-1.55488">
        <ele>29.66</ele>
        <time>2017-01-05T07:14:22Z</time>
      </trkpt>
      <trkpt lat="47.26036" lon="-1.55463">
        <ele>29.47</ele>
        <time>2017-01-05T07:14:33Z</time>
      </trkpt>
      <trkpt lat="47.26043" lon="-1.55438">
        <ele>29.23</ele>
        <time>2017-01-05T07:14:44Z</time>
      </trkpt>
      <trkpt lat="47.26051" lon="-1.55413">
        <ele>28.87</ele>
        <time>2017-01-05T07:14:56Z</time>
      </trkpt>
      <trkpt lat="47.2606" lon="-1.55388">
        <ele>28.49</ele>
        <time>2017-01-05T07:15:08Z</time>
      </trkpt>
      <trkpt lat="47.26071" lon="-1.55366">
        <ele>28.22</ele>
        <time>2017-01-05T07:15:19Z</time>
      </trkpt>
      <trkpt lat="47.26082" lon="-1.55342">
        <ele>27.93</ele>
        <time>2017-01-05T07:15:31Z</time>
      </trkpt>
      <trkpt lat="47.26092" lon="-1.5532">
        <ele>27.62</ele>
        <time>2017-01-05T07:15:43Z</time>
      </trkpt>
      <trkpt lat="47.26102" lon="-1.55296">
        <ele>27.28</ele>
        <time>2017-01-05T07:15:54Z</time>
      </trkpt>
      <trkpt lat="47.26111" lon="-1.55272">
        <ele>26.87</ele>
        <time>2017-01-05T07:16:09Z</time>
      </trkpt>
      <trkpt lat="47.26118" lon="-1.55247">
        <ele>26.66</ele>
        <time>2017-01-05T07:16:21Z</time>
      </trkpt>
      <trkpt lat="47.26125" lon="-1.55222">
        <ele>26.49</ele>
        <time>2017-01-05T07:16:33Z</time>
      </trkpt>
      <trkpt lat="47.26135" lon="-1.55199">
        <ele>26.34</ele>
        <time>2017-01-05T07:16:44Z</time>
      </trkpt>
      <trkpt lat="47.26144" lon="-1.55175">
        <ele>26.26</ele>
        <time>2017-01-05T07:16:56Z</time>
      </trkpt>
      <trkpt lat="47.26152" lon="-1.5515">
        <ele>26.03</ele>
        <time>2017-01-05T07:17:08Z</time>
      </trkpt>
      <trkpt lat="47.2616" lon="-1.55125">
        <ele>25.72</ele>
        <time>2017-01-05T07:17:21Z</time>
      </trkpt>
      <trkpt lat="47.2617" lon="-1.55102">
        <ele>25.78</ele>
        <time>2017-01-05T07:17:33Z</time>
      </trkpt>
      <trkpt lat="47.26181" lon="-1.5508">
        <ele>26.08</ele>
        <time>2017-01-05T07:17:45Z</time>
      </trkpt>
      <trkpt lat="47.26191" lon="-1.55056">
        <ele>25.96</ele>
        <time>2017-01-05T07:17:57Z</time>
      </trkpt>
      <trkpt lat="47.26202" lon="-1.55033">
        <ele>25.56</ele>
        <time>2017-01-05T07:18:07Z</time>
      </trkpt>
      <trkpt lat="47.26213" lon="-1.55011">
        <ele>25.17</ele>
        <time>2017-01-05T07:18:18Z</time>
      </trkpt>
      <trkpt lat="47.26224" lon="-1.54991">
        <ele>24.66</ele>
        <time>2017-01-05T07:18:31Z</time>
      </trkpt>
      <trkpt lat="47.26236" lon="-1.54969">
        <ele>24.04</ele>
        <time>2017-01-05T07:18:41Z</time>
      </trkpt>
      <trkpt lat="47.26248" lon="-1.54948">
        <ele>23.37</ele>
        <time>2017-01-05T07:18:52Z</time>
      </trkpt>
      <trkpt lat="47.26263" lon="-1.5493">
        <ele>22.49</ele>
        <time>2017-01-05T07:19:06Z</time>
      </trkpt>
      <trkpt lat="47.26277" lon="-1.54912">
        <ele>21.87</ele>
        <time>2017-01-05T07:19:18Z</time>
      </trkpt>
      <trkpt lat="47.26292" lon="-1.54896">
        <ele>21.52</ele>
        <time>2017-01-05T07:19:30Z</time>
      </trkpt>
      <trkpt lat="47.26307" lon="-1.54878">
        <ele>21.35</ele>
        <time>2017-01-05T07:19:43Z</time>
      </trkpt>
      <trkpt lat="47.26323" lon="-1.54867">
        <ele>21.62</ele>
        <time>2017-01-05T07:19:56Z</time>
      </trkpt>
      <trkpt lat="47.26342" lon="-1.54862">
        <ele>21.92</ele>
        <time>2017-01-05T07:20:10Z</time>
      </trkpt>
      <trkpt lat="47.26353" lon="-1.5484">
        <ele>22.14</ele>
        <time>2017-01-05T07:20:22Z</time>
      </trkpt>
      <trkpt lat="47.26363" lon="-1.54817">
        <ele>22.17</ele>
        <time>2017-01-05T07:20:34Z</time>
      </trkpt>
      <trkpt lat="47.26378" lon="-1.548">
        <ele>22.28</ele>
        <time>2017-01-05T07:20:47Z</time>
      </trkpt>
      <trkpt lat="47.26394" lon="-1.54783">
        <ele>22.62</ele>
        <time>2017-01-05T07:20:59Z</time>
      </trkpt>
      <trkpt lat="47.26411" lon="-1.54771">
        <ele>23.09</ele>
        <time>2017-01-05T07:21:11Z</time>
      </trkpt>
      <trkpt lat="47.26426" lon="-1.54753">
        <ele>23.64</ele>
        <time>2017-01-05T07:21:23Z</time>
      </trkpt>
      <trkpt lat="47.26439" lon="-1.54735">
        <ele>24.42</ele>
        <time>2017-01-05T07:21:35Z</time>
      </trkpt>
      <trkpt lat="47.26456" lon="-1.54721">
        <ele>25.38</ele>
        <time>2017-01-05T07:21:47Z</time>
      </trkpt>
      <trkpt lat="47.26472" lon="-1.54709">
        <ele>26.18</ele>
        <time>2017-01-05T07:21:59Z</time>
      </trkpt>
      <trkpt lat="47.2649" lon="-1.54698">
        <ele>26.83</ele>
        <time>2017-01-05T07:22:12Z</time>
      </trkpt>
      <trkpt lat="47.26507" lon="-1.54688">
        <ele>27.38</ele>
        <time>2017-01-05T07:22:24Z</time>
      </trkpt>
      <trkpt lat="47.26522" lon="-1.54672">
        <ele>27.95</ele>
        <time>2017-01-05T07:22:36Z</time>
      </trkpt>
      <trkpt lat="47.2654" lon="-1.5466">
        <ele>28.66</ele>
        <time>2017-01-05T07:22:50Z</time>
      </trkpt>
      <trkpt lat="47.26558" lon="-1.54652">
        <ele>29.28</ele>
        <time>2017-01-05T07:23:03Z</time>
      </trkpt>
      <trkpt lat="47.26575" lon="-1.54642">
        <ele>29.79</ele>
        <time>2017-01-05T07:23:14Z</time>
      </trkpt>
      <trkpt lat="47.26594" lon="-1.54633">
        <ele>30.19</ele>
        <time>2017-01-05T07:23:26Z</time>
      </trkpt>
      <trkpt lat="47.26613" lon="-1.54623">
        <ele>30.52</ele>
        <time>2017-01-05T07:23:38Z</time>
      </trkpt>
      <trkpt lat="47.2663" lon="-1.54617">
        <ele>30.7</ele>
        <time>2017-01-05T07:23:50Z</time>
      </trkpt>
      <trkpt lat="47.26649" lon="-1.54613">
        <ele>30.55</ele>
        <time>2017-01-05T07:24:04Z</time>
      </trkpt>
      <trkpt lat="47.26669" lon="-1.54611">
        <ele>30.3</ele>
        <time>2017-01-05T07:24:16Z</time>
      </trkpt>
      <trkpt lat="47.26687" lon="-1.54608">
        <ele>30.08</ele>
        <time>2017-01-05T07:24:28Z</time>
      </trkpt>
      <trkpt lat="47.26706" lon="-1.54607">
        <ele>30.1</ele>
        <time>2017-01-05T07:24:40Z</time>
      </trkpt>
      <trkpt lat="47.26724" lon="-1.54604">
        <ele>30.07</ele>
        <time>2017-01-05T07:24:50Z</time>
      </trkpt>
      <trkpt lat="47.26743" lon="-1.54599">
        <ele>29.92</ele>
        <time>2017-01-05T07:25:01Z</time>
      </trkpt>
      <trkpt lat="47.26761" lon="-1.54597">
        <ele>29.91</ele>
        <time>2017-01-05T07:25:12Z</time>
      </trkpt>
      <trkpt lat="47.26779" lon="-1.54598">
        <ele>29.94</ele>
        <time>2017-01-05T07:25:24Z</time>
      </trkpt>
      <trkpt lat="47.26799" lon="-1.54598">
        <ele>29.92</ele>
        <time>2017-01-05T07:25:35Z</time>
      </trkpt>
      <trkpt lat="47.26817" lon="-1.54602">
        <ele>29.87</ele>
        <time>2017-01-05T07:25:47Z</time>
      </trkpt>
      <trkpt lat="47.26836" lon="-1.54604">
        <ele>29.76</ele>
        <time>2017-01-05T07:25:56Z</time>
      </trkpt>
      <trkpt lat="47.26849" lon="-1.54624">
        <ele>29.81</ele>
        <time>2017-01-05T07:26:08Z</time>
      </trkpt>
      <trkpt lat="47.26858" lon="-1.54648">
        <ele>30.07</ele>
        <time>2017-01-05T07:26:20Z</time>
      </trkpt>
      <trkpt lat="47.26869" lon="-1.54672">
        <ele>30.42</ele>
        <time>2017-01-05T07:26:32Z</time>
      </trkpt>
      <trkpt lat="47.26876" lon="-1.54696">
        <ele>31.01</ele>
        <time>2017-01-05T07:26:43Z</time>
      </trkpt>
      <trkpt lat="47.26881" lon="-1.54722">
        <ele>31.97</ele>
        <time>2017-01-05T07:26:56Z</time>
      </trkpt>
      <trkpt lat="47.2689" lon="-1.54747">
        <ele>32.71</ele>
        <time>2017-01-05T07:27:07Z</time>
      </trkpt>
      <trkpt lat="47.26899" lon="-1.54774">
        <ele>33.35</ele>
        <time>2017-01-05T07:27:21Z</time>
      </trkpt>
      <trkpt lat="47.26903" lon="-1.54802">
        <ele>33.69</ele>
        <time>2017-01-05T07:27:34Z</time>
      </trkpt>
      <trkpt lat="47.26907" lon="-1.5483">
        <ele>34.03</ele>
        <time>2017-01-05T07:27:48Z</time>
      </trkpt>
      <trkpt lat="47.26913" lon="-1.54858">
        <ele>34.17</ele>
        <time>2017-01-05T07:27:59Z</time>
      </trkpt>
      <trkpt lat="47.26921" lon="-1.54883">
        <ele>34.22</ele>
        <time>2017-01-05T07:28:09Z</time>
      </trkpt>
      <trkpt lat="47.26924" lon="-1.5491">
        <ele>34.19</ele>
        <time>2017-01-05T07:28:21Z</time>
      </trkpt>
      <trkpt lat="47.26924" lon="-1.54938">
        <ele>34.03</ele>
        <time>2017-01-05T07:28:35Z</time>
      </trkpt>
      <trkpt lat="47.26921" lon="-1.54968">
        <ele>33.65</ele>
        <time>2017-01-05T07:28:48Z</time>
      </trkpt>
      <trkpt lat="47.26923" lon="-1.54995">
        <ele>33.19</ele>
        <time>2017-01-05T07:29:00Z</time>
      </trkpt>
      <trkpt lat="47.26927" lon="-1.55021">
        <ele>32.84</ele>
        <time>2017-01-05T07:29:10Z</time>
      </trkpt>
      <trkpt lat="47.26932" lon="-1.55048">
        <ele>32.31</ele>
        <time>2017-01-05T07:29:23Z</time>
      </trkpt>
      <trkpt lat="47.26938" lon="-1.55075">
        <ele>31.67</ele>
        <time>2017-01-05T07:29:34Z</time>
      </trkpt>
      <trkpt lat="47.26943" lon="-1.55101">
        <ele>31.06</ele>
        <time>2017-01-05T07:29:46Z</time>
      </trkpt>
      <trkpt lat="47.26946" lon="-1.55127">
        <ele>30.71</ele>
        <time>2017-01-05T07:29:58Z</time>
      </trkpt>
      <trkpt lat="47.26951" lon="-1.55155">
        <ele>30.18</ele>
        <time>2017-01-05T07:30:09Z</time>
      </trkpt>
      <trkpt lat="47.26956" lon="-1.55182">
        <ele>29.33</ele>
        <time>2017-01-05T07:30:23Z</time>
      </trkpt>
      <trkpt lat="47.26964" lon="-1.55207">
        <ele>28.64</ele>
        <time>2017-01-05T07:30:35Z</time>
      </trkpt>
      <trkpt lat="47.26976" lon="-1.5523">
        <ele>28.02</ele>
        <time>2017-01-05T07:30:48Z</time>
      </trkpt>
      <trkpt lat="47.26985" lon="-1.55255">
        <ele>27.23</ele>
        <time>2017-01-05T07:31:00Z</time>
      </trkpt>
      <trkpt lat="47.26996" lon="-1.55276">
        <ele>26.3</ele>
        <time>2017-01-05T07:31:12Z</time>
      </trkpt>
      <trkpt lat="47.27006" lon="-1.55298">
        <ele>25.85</ele>
        <time>2017-01-05T07:31:20Z</time>
      </trkpt>
      <trkpt lat="47.27016" lon="-1.55321">
        <ele>25.4</ele>
        <time>2017-01-05T07:31:31Z</time>
      </trkpt>
      <trkpt lat="47.27022" lon="-1.55346">
        <ele>25</ele>
        <time>2017-01-05T07:31:44Z</time>
      </trkpt>
      <trkpt lat="47.27025" lon="-1.55374">
        <ele>25.03</ele>
        <time>2017-01-05T07:31:53Z</time>
      </trkpt>
      <trkpt lat="47.2703" lon="-1.55401">
        <ele>25.36</ele>
        <time>2017-01-05T07:32:06Z</time>
      </trkpt>
      <trkpt lat="47.27035" lon="-1.5543">
        <ele>25.74</ele>
        <time>2017-01-05T07:32:18Z</time>
      </trkpt>
      <trkpt lat="47.27033" lon="-1.55457">
        <ele>26.06</ele>
        <time>2017-01-05T07:32:28Z</time>
      </trkpt>
      <trkpt lat="47.27039" lon="-1.55484">
        <ele>26.43</ele>
        <time>2017-01-05T07:32:42Z</time>
      </trkpt>
      <trkpt lat="47.27046" lon="-1.55511">
        <ele>26.23</ele>
        <time>2017-01-05T07:32:51Z</time>
      </trkpt>
      <trkpt lat="47.2706" lon="-1.5553">
        <ele>25.51</ele>
        <time>2017-01-05T07:33:04Z</time>
      </trkpt>
      <trkpt lat="47.27077" lon="-1.5554">
        <ele>24.89</ele>
        <time>2017-01-05T07:33:15Z</time>
      </trkpt>
      <trkpt lat="47.27094" lon="-1.55561">
        <ele>24.19</ele>
        <time>2017-01-05T07:33:27Z</time>
      </trkpt>
      <trkpt lat="47.27106" lon="-1.55581">
        <ele>23.3</ele>
        <time>2017-01-05T07:33:44Z</time>
      </trkpt>
      <trkpt lat="47.27102" lon="-1.55611">
        <ele>21.49</ele>
        <time>2017-01-05T07:34:11Z</time>
      </trkpt>
      <trkpt lat="47.27087" lon="-1.55626">
        <ele>20.81</ele>
        <time>2017-01-05T07:34:26Z</time>
      </trkpt>
      <trkpt lat="47.2708" lon="-1.55652">
        <ele>19.55</ele>
        <time>2017-01-05T07:34:38Z</time>
      </trkpt>
      <trkpt lat="47.27074" lon="-1.5568">
        <ele>18.7</ele>
        <time>2017-01-05T07:34:48Z</time>
      </trkpt>
      <trkpt lat="47.27068" lon="-1.55708">
        <ele>17.84</ele>
        <time>2017-01-05T07:34:57Z</time>
      </trkpt>
      <trkpt lat="47.27063" lon="-1.55735">
        <ele>16.72</ele>
        <time>2017-01-05T07:35:10Z</time>
      </trkpt>
      <trkpt lat="47.27068" lon="-1.5576">
        <ele>15.69</ele>
        <time>2017-01-05T07:35:25Z</time>
      </trkpt>
      <trkpt lat="47.27085" lon="-1.55774">
        <ele>15.32</ele>
        <time>2017-01-05T07:35:36Z</time>
      </trkpt>
      <trkpt lat="47.27101" lon="-1.55788">
        <ele>15.01</ele>
        <time>2017-01-05T07:35:44Z</time>
      </trkpt>
      <trkpt lat="47.27109" lon="-1.55814">
        <ele>14.3</ele>
        <time>2017-01-05T07:36:03Z</time>
      </trkpt>
      <trkpt lat="47.27115" lon="-1.55842">
        <ele>13.97</ele>
        <time>2017-01-05T07:36:12Z</time>
      </trkpt>
      <trkpt lat="47.27121" lon="-1.55868">
        <ele>13.68</ele>
        <time>2017-01-05T07:36:22Z</time>
      </trkpt>
      <trkpt lat="47.27136" lon="-1.55883">
        <ele>13.36</ele>
        <time>2017-01-05T07:36:37Z</time>
      </trkpt>
      <trkpt lat="47.2715" lon="-1.55901">
        <ele>12.89</ele>
        <time>2017-01-05T07:36:53Z</time>
      </trkpt>
      <trkpt lat="47.27163" lon="-1.55923">
        <ele>12.56</ele>
        <time>2017-01-05T07:37:01Z</time>
      </trkpt>
      <trkpt lat="47.27174" lon="-1.55946">
        <ele>11.71</ele>
        <time>2017-01-05T07:37:18Z</time>
      </trkpt>
      <trkpt lat="47.27186" lon="-1.55967">
        <ele>11</ele>
        <time>2017-01-05T07:37:26Z</time>
      </trkpt>
      <trkpt lat="47.27198" lon="-1.55988">
        <ele>9.86</ele>
        <time>2017-01-05T07:37:42Z</time>
      </trkpt>
      <trkpt lat="47.27211" lon="-1.56012">
        <ele>9.23</ele>
        <time>2017-01-05T07:37:57Z</time>
      </trkpt>
      <trkpt lat="47.27227" lon="-1.56024">
        <ele>8.78</ele>
        <time>2017-01-05T07:38:06Z</time>
      </trkpt>
      <trkpt lat="47.27245" lon="-1.56023">
        <ele>8.12</ele>
        <time>2017-01-05T07:38:20Z</time>
      </trkpt>
      <trkpt lat="47.27263" lon="-1.56035">
        <ele>7.44</ele>
        <time>2017-01-05T07:38:29Z</time>
      </trkpt>
      <trkpt lat="47.2728" lon="-1.56047">
        <ele>6.5</ele>
        <time>2017-01-05T07:38:40Z</time>
      </trkpt>
      <trkpt lat="47.27288" lon="-1.56072">
        <ele>5.67</ele>
        <time>2017-01-05T07:38:51Z</time>
      </trkpt>
      <trkpt lat="47.27302" lon="-1.56092">
        <ele>4.99</ele>
        <time>2017-01-05T07:39:03Z</time>
      </trkpt>
      <trkpt lat="47.27321" lon="-1.56104">
        <ele>4.32</ele>
        <time>2017-01-05T07:39:18Z</time>
      </trkpt>
      <trkpt lat="47.27339" lon="-1.56116">
        <ele>2.98</ele>
        <time>2017-01-05T07:39:34Z</time>
      </trkpt>
      <trkpt lat="47.27357" lon="-1.56118">
        <ele>2.08</ele>
        <time>2017-01-05T07:39:41Z</time>
      </trkpt>
      <trkpt lat="47.27378" lon="-1.56127">
        <ele>1</ele>
        <time>2017-01-05T07:39:49Z</time>
      </trkpt>
      <trkpt lat="47.27397" lon="-1.56131">
        <ele>-0.59</ele>
        <time>2017-01-05T07:40:06Z</time>
      </trkpt>
      <trkpt lat="47.27415" lon="-1.56132">
        <ele>-1.53</ele>
        <time>2017-01-05T07:40:19Z</time>
      </trkpt>
      <trkpt lat="47.27435" lon="-1.56129">
        <ele>-2.33</ele>
        <time>2017-01-05T07:40:30Z</time>
      </trkpt>
      <trkpt lat="47.27453" lon="-1.56123">
        <ele>-3.56</ele>
        <time>2017-01-05T07:40:57Z</time>
      </trkpt>
      <trkpt lat="47.27472" lon="-1.56124">
        <ele>-4.42</ele>
        <time>2017-01-05T07:41:10Z</time>
      </trkpt>
      <trkpt lat="47.27491" lon="-1.56115">
        <ele>-4.96</ele>
        <time>2017-01-05T07:41:20Z</time>
      </trkpt>
      <trkpt lat="47.27508" lon="-1.56104">
        <ele>-5.1</ele>
        <time>2017-01-05T07:41:32Z</time>
      </trkpt>
      <trkpt lat="47.27521" lon="-1.56082">
        <ele>-5.18</ele>
        <time>2017-01-05T07:41:49Z</time>
      </trkpt>
      <trkpt lat="47.27531" lon="-1.56058">
        <ele>-5.19</ele>
        <time>2017-01-05T07:41:59Z</time>
      </trkpt>
      <trkpt lat="47.27545" lon="-1.5604">
        <ele>-5.02</ele>
        <time>2017-01-05T07:42:13Z</time>
      </trkpt>
      <trkpt lat="47.27561" lon="-1.56025">
        <ele>-4.88</ele>
        <time>2017-01-05T07:42:20Z</time>
      </trkpt>
      <trkpt lat="47.27578" lon="-1.56018">
        <ele>-4.32</ele>
        <time>2017-01-05T07:42:33Z</time>
      </trkpt>
      <trkpt lat="47.27596" lon="-1.56007">
        <ele>-3.22</ele>
        <time>2017-01-05T07:42:54Z</time>
      </trkpt>
      <trkpt lat="47.27611" lon="-1.56023">
        <ele>-2.66</ele>
        <time>2017-01-05T07:43:06Z</time>
      </trkpt>
      <trkpt lat="47.27614" lon="-1.5605">
        <ele>-1.77</ele>
        <time>2017-01-05T07:43:23Z</time>
      </trkpt>
      <trkpt lat="47.27617" lon="-1.56077">
        <ele>-1.39</ele>
        <time>2017-01-05T07:43:33Z</time>
      </trkpt>
      <trkpt lat="47.27635" lon="-1.56091">
        <ele>-0.83</ele>
        <time>2017-01-05T07:43:43Z</time>
      </trkpt>
      <trkpt lat="47.27652" lon="-1.56109">
        <ele>-0.19</ele>
        <time>2017-01-05T07:43:52Z</time>
      </trkpt>
      <trkpt lat="47.27668" lon="-1.56125">
        <ele>0.89</ele>
        <time>2017-01-05T07:44:03Z</time>
      </trkpt>
      <trkpt lat="47.27685" lon="-1.56134">
        <ele>2.26</ele>
        <time>2017-01-05T07:44:17Z</time>
      </trkpt>
      <trkpt lat="47.27703" lon="-1.56137">
        <ele>3.12</ele>
        <time>2017-01-05T07:44:29Z</time>
      </trkpt>
      <trkpt lat="47.27722" lon="-1.56148">
        <ele>3.73</ele>
        <time>2017-01-05T07:44:42Z</time>
      </trkpt>
      <trkpt lat="47.2774" lon="-1.56158">
        <ele>4</ele>
        <time>2017-01-05T07:44:50Z</time>
      </trkpt>
      <trkpt lat="47.27752" lon="-1.56179">
        <ele>4.45</ele>
        <time>2017-01-05T07:45:06Z</time>
      </trkpt>
      <trkpt lat="47.27762" lon="-1.56202">
        <ele>4.9</ele>
        <time>2017-01-05T07:45:18Z</time>
      </trkpt>
      <trkpt lat="47.27768" lon="-1.56228">
        <ele>5.6</ele>
        <time>2017-01-05T07:45:29Z</time>
      </trkpt>
      <trkpt lat="47.2778" lon="-1.56247">
        <ele>6.5</ele>
        <time>2017-01-05T07:45:41Z</time>
      </trkpt>
      <trkpt lat="47.27789" lon="-1.56276">
        <ele>7.58</ele>
        <time>2017-01-05T07:45:54Z</time>
      </trkpt>
      <trkpt lat="47.27801" lon="-1.56296">
        <ele>8.39</ele>
        <time>2017-01-05T07:46:04Z</time>
      </trkpt>
      <trkpt lat="47.27816" lon="-1.56313">
        <ele>9.29</ele>
        <time>2017-01-05T07:46:19Z</time>
      </trkpt>
      <trkpt lat="47.27828" lon="-1.56337">
        <ele>9.72</ele>
        <time>2017-01-05T07:46:32Z</time>
      </trkpt>
      <trkpt lat="47.27843" lon="-1.56357">
        <ele>9.89</ele>
        <time>2017-01-05T07:46:42Z</time>
      </trkpt>
      <trkpt lat="47.27852" lon="-1.5638">
        <ele>9.92</ele>
        <time>2017-01-05T07:46:54Z</time>
      </trkpt>
      <trkpt lat="47.27859" lon="-1.56405">
        <ele>9.65</ele>
        <time>2017-01-05T07:47:11Z</time>
      </trkpt>
      <trkpt lat="47.27859" lon="-1.56436">
        <ele>9.39</ele>
        <time>2017-01-05T07:47:18Z</time>
      </trkpt>
      <trkpt lat="47.27852" lon="-1.56463">
        <ele>9</ele>
        <time>2017-01-05T07:47:28Z</time>
      </trkpt>
      <trkpt lat="47.27855" lon="-1.5649">
        <ele>8.37</ele>
        <time>2017-01-05T07:47:41Z</time>
      </trkpt>
      <trkpt lat="47.27864" lon="-1.56516">
        <ele>7.7</ele>
        <time>2017-01-05T07:47:51Z</time>
      </trkpt>
      <trkpt lat="47.27874" lon="-1.5654">
        <ele>6.95</ele>
        <time>2017-01-05T07:48:02Z</time>
      </trkpt>
      <trkpt lat="47.27889" lon="-1.56558">
        <ele>6.03</ele>
        <time>2017-01-05T07:48:15Z</time>
      </trkpt>
      <trkpt lat="47.27902" lon="-1.56579">
        <ele>5.2</ele>
        <time>2017-01-05T07:48:29Z</time>
      </trkpt>
      <trkpt lat="47.27921" lon="-1.56575">
        <ele>4.54</ele>
        <time>2017-01-05T07:48:43Z</time>
      </trkpt>
      <trkpt lat="47.27936" lon="-1.56554">
        <ele>3.32</ele>
        <time>2017-01-05T07:48:58Z</time>
      </trkpt>
      <trkpt lat="47.27952" lon="-1.5654">
        <ele>2.31</ele>
        <time>2017-01-05T07:49:10Z</time>
      </trkpt>
      <trkpt lat="47.2797" lon="-1.56545">
        <ele>1.54</ele>
        <time>2017-01-05T07:49:22Z</time>
      </trkpt>
      <trkpt lat="47.27987" lon="-1.56558">
        <ele>0.92</ele>
        <time>2017-01-05T07:49:36Z</time>
      </trkpt>
      <trkpt lat="47.28005" lon="-1.56557">
        <ele>0.61</ele>
        <time>2017-01-05T07:49:47Z</time>
      </trkpt>
      <trkpt lat="47.28017" lon="-1.56536">
        <ele>0.76</ele>
        <time>2017-01-05T07:50:02Z</time>
      </trkpt>
      <trkpt lat="47.27998" lon="-1.56519">
        <ele>0.98</ele>
        <time>2017-01-05T07:50:26Z</time>
      </trkpt>
      <trkpt lat="47.27984" lon="-1.56499">
        <ele>0.94</ele>
        <time>2017-01-05T07:50:35Z</time>
      </trkpt>
      <trkpt lat="47.28" lon="-1.5648">
        <ele>0.99</ele>
        <time>2017-01-05T07:51:15Z</time>
      </trkpt>
      <trkpt lat="47.28017" lon="-1.56466">
        <ele>1.12</ele>
        <time>2017-01-05T07:51:27Z</time>
      </trkpt>
      <trkpt lat="47.28034" lon="-1.56451">
        <ele>1.36</ele>
        <time>2017-01-05T07:51:36Z</time>
      </trkpt>
      <trkpt lat="47.2805" lon="-1.56437">
        <ele>2.15</ele>
        <time>2017-01-05T07:51:53Z</time>
      </trkpt>
      <trkpt lat="47.2806" lon="-1.56413">
        <ele>2.5</ele>
        <time>2017-01-05T07:52:06Z</time>
      </trkpt>
      <trkpt lat="47.2807" lon="-1.56392">
        <ele>2.49</ele>
        <time>2017-01-05T07:52:16Z</time>
      </trkpt>
      <trkpt lat="47.28082" lon="-1.56368">
        <ele>2.28</ele>
        <time>2017-01-05T07:52:32Z</time>
      </trkpt>
      <trkpt lat="47.28085" lon="-1.5634">
        <ele>2.14</ele>
        <time>2017-01-05T07:52:43Z</time>
      </trkpt>
      <trkpt lat="47.28097" lon="-1.56316">
        <ele>1.93</ele>
        <time>2017-01-05T07:52:54Z</time>
      </trkpt>
      <trkpt lat="47.28108" lon="-1.56294">
        <ele>1.9</ele>
        <time>2017-01-05T07:53:03Z</time>
      </trkpt>
      <trkpt lat="47.28117" lon="-1.56268">
        <ele>2.55</ele>
        <time>2017-01-05T07:53:14Z</time>
      </trkpt>
      <trkpt lat="47.28123" lon="-1.56242">
        <ele>3.25</ele>
        <time>2017-01-05T07:53:21Z</time>
      </trkpt>
      <trkpt lat="47.2813" lon="-1.56214">
        <ele>4.57</ele>
        <time>2017-01-05T07:53:32Z</time>
      </trkpt>
      <trkpt lat="47.28138" lon="-1.56187">
        <ele>6.31</ele>
        <time>2017-01-05T07:53:45Z</time>
      </trkpt>
      <trkpt lat="47.28149" lon="-1.56165">
        <ele>8.05</ele>
        <time>2017-01-05T07:53:57Z</time>
      </trkpt>
      <trkpt lat="47.2816" lon="-1.56144">
        <ele>9.55</ele>
        <time>2017-01-05T07:54:09Z</time>
      </trkpt>
      <trkpt lat="47.28172" lon="-1.56123">
        <ele>10.66</ele>
        <time>2017-01-05T07:54:20Z</time>
      </trkpt>
      <trkpt lat="47.28181" lon="-1.56099">
        <ele>11.56</ele>
        <time>2017-01-05T07:54:31Z</time>
      </trkpt>
      <trkpt lat="47.2819" lon="-1.56075">
        <ele>12.09</ele>
        <time>2017-01-05T07:54:42Z</time>
      </trkpt>
      <trkpt lat="47.28188" lon="-1.56049">
        <ele>12.83</ele>
        <time>2017-01-05T07:54:56Z</time>
      </trkpt>
      <trkpt lat="47.28195" lon="-1.56023">
        <ele>13.59</ele>
        <time>2017-01-05T07:55:08Z</time>
      </trkpt>
      <trkpt lat="47.28203" lon="-1.55996">
        <ele>14.52</ele>
        <time>2017-01-05T07:55:20Z</time>
      </trkpt>
      <trkpt lat="47.2821" lon="-1.55972">
        <ele>15.29</ele>
        <time>2017-01-05T07:55:32Z</time>
      </trkpt>
      <trkpt lat="47.28219" lon="-1.55947">
        <ele>15.86</ele>
        <time>2017-01-05T07:55:43Z</time>
      </trkpt>
      <trkpt lat="47.28227" lon="-1.55921">
        <ele>16.49</ele>
        <time>2017-01-05T07:55:55Z</time>
      </trkpt>
      <trkpt lat="47.28235" lon="-1.55896">
        <ele>16.82</ele>
        <time>2017-01-05T07:56:05Z</time>
      </trkpt>
      <trkpt lat="47.28245" lon="-1.55872">
        <ele>17.55</ele>
        <time>2017-01-05T07:56:16Z</time>
      </trkpt>
      <trkpt lat="47.28258" lon="-1.55853">
        <ele>18.54</ele>
        <time>2017-01-05T07:56:28Z</time>
      </trkpt>
      <trkpt lat="47.28269" lon="-1.55831">
        <ele>19.67</ele>
        <time>2017-01-05T07:56:42Z</time>
      </trkpt>
      <trkpt lat="47.28287" lon="-1.55819">
        <ele>20.39</ele>
        <time>2017-01-05T07:56:53Z</time>
      </trkpt>
      <trkpt lat="47.28306" lon="-1.55817">
        <ele>21.14</ele>
        <time>2017-01-05T07:57:06Z</time>
      </trkpt>
      <trkpt lat="47.28323" lon="-1.55805">
        <ele>21.65</ele>
        <time>2017-01-05T07:57:17Z</time>
      </trkpt>
      <trkpt lat="47.28335" lon="-1.55783">
        <ele>22.13</ele>
        <time>2017-01-05T07:57:28Z</time>
      </trkpt>
      <trkpt lat="47.28351" lon="-1.55769">
        <ele>21.33</ele>
        <time>2017-01-05T08:00:01Z</time>
      </trkpt>
      <trkpt lat="47.28367" lon="-1.55754">
        <ele>21.45</ele>
        <time>2017-01-05T08:00:19Z</time>
      </trkpt>
    </trkseg>
  </trk>
</gpx>